sensor_id;sensor_type;location;lat;lon;timestamp;pressure;altitude;pressure_sealevel;temperature;humidity
69060;BME280;56135;37.534;-122.308;2022-11-15T00:00:05;101797.16;;;12.17;86.90
69060;BME280;56135;37.534;-122.308;2022-11-15T00:02:31;101795.44;;;12.06;90.10
69060;BME280;56135;37.534;-122.308;2022-11-15T00:04:56;101807.78;;;11.97;90.51
69060;BME280;56135;37.534;-122.308;2022-11-15T00:07:22;101802.50;;;11.80;100.00
69060;BME280;56135;37.534;-122.308;2022-11-15T00:09:48;101808.66;;;11.72;95.85
69060;BME280;56135;37.534;-122.308;2022-11-15T00:12:14;101806.03;;;11.64;100.00
69060;BME280;56135;37.534;-122.308;2022-11-15T00:14:40;101805.13;;;11.51;100.00
69060;BME280;56135;37.534;-122.308;2022-11-15T00:17:05;101812.19;;;11.40;100.00
69060;BME280;56135;37.534;-122.308;2022-11-15T00:19:31;101811.28;;;11.21;100.00
69060;BME280;56135;37.534;-122.308;2022-11-15T00:21:57;101807.75;;;11.06;100.00
69060;BME280;56135;37.534;-122.308;2022-11-15T00:24:23;101819.16;;;10.97;100.00
69060;BME280;56135;37.534;-122.308;2022-11-15T00:26:49;101823.53;;;10.84;100.00
69060;BME280;56135;37.534;-122.308;2022-11-15T00:29:14;101820.00;;;10.84;100.00
69060;BME280;56135;37.534;-122.308;2022-11-15T00:31:40;101819.13;;;10.77;100.00
69060;BME280;56135;37.534;-122.308;2022-11-15T00:34:06;101812.91;;;10.77;100.00
69060;BME280;56135;37.534;-122.308;2022-11-15T00:36:32;101809.41;;;10.72;100.00
69060;BME280;56135;37.534;-122.308;2022-11-15T00:38:59;101815.53;;;10.67;100.00
69060;BME280;56135;37.534;-122.308;2022-11-15T00:41:25;101811.13;;;10.62;100.00
69060;BME280;56135;37.534;-122.308;2022-11-15T00:43:51;101816.41;;;10.56;100.00
69060;BME280;56135;37.534;-122.308;2022-11-15T00:46:17;101824.28;;;10.51;100.00
69060;BME280;56135;37.534;-122.308;2022-11-15T00:48:42;101819.88;;;10.45;100.00
69060;BME280;56135;37.534;-122.308;2022-11-15T00:51:08;101820.69;;;10.40;100.00
69060;BME280;56135;37.534;-122.308;2022-11-15T00:53:34;101810.97;;;10.35;100.00
69060;BME280;56135;37.534;-122.308;2022-11-15T00:56:00;101814.44;;;10.30;100.00
69060;BME280;56135;37.534;-122.308;2022-11-15T00:58:26;101809.13;;;10.22;100.00
69060;BME280;56135;37.534;-122.308;2022-11-15T01:00:51;101816.13;;;10.17;100.00
69060;BME280;56135;37.534;-122.308;2022-11-15T01:03:17;101817.00;;;10.13;100.00
69060;BME280;56135;37.534;-122.308;2022-11-15T01:05:43;101822.25;;;10.08;100.00
69060;BME280;56135;37.534;-122.308;2022-11-15T01:08:15;101829.25;;;10.05;100.00
69060;BME280;56135;37.534;-122.308;2022-11-15T01:10:41;101823.06;;;9.96;100.00
69060;BME280;56135;37.534;-122.308;2022-11-15T01:13:07;101822.13;;;9.91;100.00
69060;BME280;56135;37.534;-122.308;2022-11-15T01:15:33;101821.22;;;9.88;100.00
69060;BME280;56135;37.534;-122.308;2022-11-15T01:17:58;101822.94;;;9.82;100.00
69060;BME280;56135;37.534;-122.308;2022-11-15T01:20:24;101823.78;;;9.80;100.00
69060;BME280;56135;37.534;-122.308;2022-11-15T01:22:50;101825.56;;;9.76;100.00
69060;BME280;56135;37.534;-122.308;2022-11-15T01:25:16;101825.50;;;9.75;100.00
69060;BME280;56135;37.534;-122.308;2022-11-15T01:27:41;101831.63;;;9.69;100.00
69060;BME280;56135;37.534;-122.308;2022-11-15T01:30:07;101828.97;;;9.66;100.00
69060;BME280;56135;37.534;-122.308;2022-11-15T01:32:33;101820.16;;;9.62;100.00
69060;BME280;56135;37.534;-122.308;2022-11-15T01:34:59;101821.00;;;9.61;100.00
69060;BME280;56135;37.534;-122.308;2022-11-15T01:37:25;101829.78;;;9.57;100.00
69060;BME280;56135;37.534;-122.308;2022-11-15T01:39:50;101831.53;;;9.55;100.00
69060;BME280;56135;37.534;-122.308;2022-11-15T01:42:16;101838.53;;;9.55;100.00
69060;BME280;56135;37.534;-122.308;2022-11-15T01:44:45;101841.16;;;9.51;100.00
69060;BME280;56135;37.534;-122.308;2022-11-15T01:47:14;101839.38;;;9.49;100.00
69060;BME280;56135;37.534;-122.308;2022-11-15T01:49:45;101845.53;;;9.48;100.00
69060;BME280;56135;37.534;-122.308;2022-11-15T01:52:15;101842.84;;;9.43;100.00
69060;BME280;56135;37.534;-122.308;2022-11-15T01:54:43;101844.56;;;9.41;100.00
69060;BME280;56135;37.534;-122.308;2022-11-15T01:57:09;101847.22;;;9.41;100.00
69060;BME280;56135;37.534;-122.308;2022-11-15T01:59:37;101845.44;;;9.39;100.00
69060;BME280;56135;37.534;-122.308;2022-11-15T02:02:03;101844.53;;;9.35;100.00
69060;BME280;56135;37.534;-122.308;2022-11-15T02:04:32;101855.09;;;9.35;100.00
69060;BME280;56135;37.534;-122.308;2022-11-15T02:07:01;101854.16;;;9.31;100.00
69060;BME280;56135;37.534;-122.308;2022-11-15T02:09:29;101858.53;;;9.29;100.00
69060;BME280;56135;37.534;-122.308;2022-11-15T02:11:55;101862.91;;;9.27;100.00
69060;BME280;56135;37.534;-122.308;2022-11-15T02:14:21;101863.78;;;9.26;100.00
69060;BME280;56135;37.534;-122.308;2022-11-15T02:22:10;101874.22;;;9.18;100.00
69060;BME280;56135;37.534;-122.308;2022-11-15T02:25:05;101878.63;;;9.16;100.00
69060;BME280;56135;37.534;-122.308;2022-11-15T02:30:27;101877.69;;;9.13;100.00
69060;BME280;56135;37.534;-122.308;2022-11-15T02:33:00;101880.31;;;9.10;100.00
69060;BME280;56135;37.534;-122.308;2022-11-15T02:40:34;101889.09;;;9.12;100.00
69060;BME280;56135;37.534;-122.308;2022-11-15T02:43:06;101889.00;;;9.06;100.00
69060;BME280;56135;37.534;-122.308;2022-11-15T02:45:54;101888.16;;;9.07;100.00
69060;BME280;56135;37.534;-122.308;2022-11-15T02:48:22;101897.81;;;9.05;100.00
69060;BME280;56135;37.534;-122.308;2022-11-15T02:50:49;101903.03;;;9.03;100.00
69060;BME280;56135;37.534;-122.308;2022-11-15T02:53:15;101909.13;;;8.97;100.00
69060;BME280;56135;37.534;-122.308;2022-11-15T02:55:42;101909.13;;;8.96;100.00
69060;BME280;56135;37.534;-122.308;2022-11-15T03:08:37;101910.75;;;8.86;100.00
69060;BME280;56135;37.534;-122.308;2022-11-15T03:16:17;101916.78;;;8.77;100.00
69060;BME280;56135;37.534;-122.308;2022-11-15T03:18:49;101920.25;;;8.75;100.00
69060;BME280;56135;37.534;-122.308;2022-11-15T03:21:17;101919.38;;;8.73;100.00
69060;BME280;56135;37.534;-122.308;2022-11-15T03:23:44;101921.91;;;8.66;100.00
69060;BME280;56135;37.534;-122.308;2022-11-15T03:26:11;101932.44;;;8.65;100.00
69060;BME280;56135;37.534;-122.308;2022-11-15T03:28:42;101929.72;;;8.62;100.00
69060;BME280;56135;37.534;-122.308;2022-11-15T03:31:10;101926.22;;;8.61;100.00
69060;BME280;56135;37.534;-122.308;2022-11-15T03:33:55;101934.09;;;8.58;100.00
69060;BME280;56135;37.534;-122.308;2022-11-15T03:36:23;101936.66;;;8.54;100.00
69060;BME280;56135;37.534;-122.308;2022-11-15T03:38:51;101929.59;;;8.51;100.00
69060;BME280;56135;37.534;-122.308;2022-11-15T03:41:23;101921.66;;;8.48;100.00
69060;BME280;56135;37.534;-122.308;2022-11-15T03:44:02;101925.13;;;8.45;100.00
69060;BME280;56135;37.534;-122.308;2022-11-15T03:46:39;101932.06;;;8.43;100.00
69060;BME280;56135;37.534;-122.308;2022-11-15T03:49:13;101933.72;;;8.37;100.00
69060;BME280;56135;37.534;-122.308;2022-11-15T03:51:40;101930.09;;;8.30;100.00
69060;BME280;56135;37.534;-122.308;2022-11-15T03:54:06;101939.72;;;8.26;100.00
69060;BME280;56135;37.534;-122.308;2022-11-15T03:56:32;101947.56;;;8.23;100.00
69060;BME280;56135;37.534;-122.308;2022-11-15T03:58:58;101942.25;;;8.20;100.00
69060;BME280;56135;37.534;-122.308;2022-11-15T04:01:24;101956.25;;;8.19;100.00
69060;BME280;56135;37.534;-122.308;2022-11-15T04:03:50;101949.16;;;8.13;100.00
69060;BME280;56135;37.534;-122.308;2022-11-15T04:06:15;101955.25;;;8.11;100.00
69060;BME280;56135;37.534;-122.308;2022-11-15T04:08:41;101962.25;;;8.10;100.00
69060;BME280;56135;37.534;-122.308;2022-11-15T04:11:10;101956.97;;;8.09;100.00
69060;BME280;56135;37.534;-122.308;2022-11-15T04:13:36;101953.41;;;8.05;100.00
69060;BME280;56135;37.534;-122.308;2022-11-15T04:16:02;101958.63;;;8.04;100.00
69060;BME280;56135;37.534;-122.308;2022-11-15T04:18:27;101968.25;;;8.00;100.00
69060;BME280;56135;37.534;-122.308;2022-11-15T04:20:53;101963.81;;;7.97;100.00
69060;BME280;56135;37.534;-122.308;2022-11-15T04:23:37;101976.94;;;7.96;100.00
69060;BME280;56135;37.534;-122.308;2022-11-15T04:26:21;101971.59;;;7.93;100.00
69060;BME280;56135;37.534;-122.308;2022-11-15T04:28:47;101965.44;;;7.89;100.00
69060;BME280;56135;37.534;-122.308;2022-11-15T04:31:32;101965.38;;;7.88;100.00
69060;BME280;56135;37.534;-122.308;2022-11-15T04:33:57;101976.69;;;7.83;100.00
69060;BME280;56135;37.534;-122.308;2022-11-15T04:36:23;101977.53;;;7.81;100.00
69060;BME280;56135;37.534;-122.308;2022-11-15T04:39:07;101973.19;;;7.83;100.00
69060;BME280;56135;37.534;-122.308;2022-11-15T04:41:33;101982.78;;;7.81;100.00
69060;BME280;56135;37.534;-122.308;2022-11-15T04:43:59;101977.50;;;7.79;100.00
69060;BME280;56135;37.534;-122.308;2022-11-15T04:46:25;101980.97;;;7.77;100.00
69060;BME280;56135;37.534;-122.308;2022-11-15T04:48:51;101987.16;;;7.79;100.00
69060;BME280;56135;37.534;-122.308;2022-11-15T04:51:17;101986.22;;;7.77;100.00
69060;BME280;56135;37.534;-122.308;2022-11-15T04:53:43;101987.06;;;7.76;100.00
69060;BME280;56135;37.534;-122.308;2022-11-15T04:56:08;101985.31;;;7.73;100.00
69060;BME280;56135;37.534;-122.308;2022-11-15T04:58:34;101981.75;;;7.71;100.00
69060;BME280;56135;37.534;-122.308;2022-11-15T05:01:09;101986.97;;;7.70;100.00
69060;BME280;56135;37.534;-122.308;2022-11-15T05:03:36;101989.50;;;7.65;100.00
69060;BME280;56135;37.534;-122.308;2022-11-15T05:06:20;101992.16;;;7.66;100.00
69060;BME280;56135;37.534;-122.308;2022-11-15T05:08:46;101989.47;;;7.63;100.00
69060;BME280;56135;37.534;-122.308;2022-11-15T05:11:12;101992.97;;;7.62;100.00
69060;BME280;56135;37.534;-122.308;2022-11-15T05:13:37;101990.31;;;7.61;100.00
69060;BME280;56135;37.534;-122.308;2022-11-15T05:16:03;101992.91;;;7.59;100.00
69060;BME280;56135;37.534;-122.308;2022-11-15T05:18:29;101996.34;;;7.55;100.00
69060;BME280;56135;37.534;-122.308;2022-11-15T05:20:55;102003.31;;;7.53;100.00
69060;BME280;56135;37.534;-122.308;2022-11-15T05:23:20;102010.28;;;7.51;100.00
69060;BME280;56135;37.534;-122.308;2022-11-15T05:25:46;102018.19;;;7.51;100.00
69060;BME280;56135;37.534;-122.308;2022-11-15T05:28:12;102007.56;;;7.46;100.00
69060;BME280;56135;37.534;-122.308;2022-11-15T05:30:38;102020.72;;;7.48;100.00
69060;BME280;56135;37.534;-122.308;2022-11-15T05:33:04;102015.44;;;7.46;100.00
69060;BME280;56135;37.534;-122.308;2022-11-15T05:35:31;102020.69;;;7.45;100.00
69060;BME280;56135;37.534;-122.308;2022-11-15T05:37:59;102013.59;;;7.41;100.00
69060;BME280;56135;37.534;-122.308;2022-11-15T05:40:26;102017.03;;;7.38;100.00
69060;BME280;56135;37.534;-122.308;2022-11-15T05:42:52;102023.09;;;7.35;100.00
69060;BME280;56135;37.534;-122.308;2022-11-15T05:45:17;102022.22;;;7.33;100.00
69060;BME280;56135;37.534;-122.308;2022-11-15T05:47:43;102023.03;;;7.31;100.00
69060;BME280;56135;37.534;-122.308;2022-11-15T05:50:11;102020.34;;;7.29;100.00
69060;BME280;56135;37.534;-122.308;2022-11-15T05:52:37;102018.59;;;7.28;100.00
69060;BME280;56135;37.534;-122.308;2022-11-15T05:55:03;102023.75;;;7.25;100.00
69060;BME280;56135;37.534;-122.308;2022-11-15T05:57:30;102020.22;;;7.22;100.00
69060;BME280;56135;37.534;-122.308;2022-11-15T05:59:56;102006.09;;;7.18;100.00
69060;BME280;56135;37.534;-122.308;2022-11-15T06:02:22;102013.06;;;7.16;100.00
69060;BME280;56135;37.534;-122.308;2022-11-15T06:04:47;102020.03;;;7.14;100.00
69060;BME280;56135;37.534;-122.308;2022-11-15T06:07:13;102012.13;;;7.12;100.00
69060;BME280;56135;37.534;-122.308;2022-11-15T06:09:39;102004.19;;;7.11;100.00
69060;BME280;56135;37.534;-122.308;2022-11-15T06:12:07;102010.28;;;7.08;100.00
69060;BME280;56135;37.534;-122.308;2022-11-15T06:14:33;102010.19;;;7.05;100.00
69060;BME280;56135;37.534;-122.308;2022-11-15T06:16:59;102010.16;;;7.04;100.00
69060;BME280;56135;37.534;-122.308;2022-11-15T06:19:25;102014.47;;;7.01;100.00
69060;BME280;56135;37.534;-122.308;2022-11-15T06:21:50;102015.28;;;6.97;100.00
69060;BME280;56135;37.534;-122.308;2022-11-15T06:24:16;102014.34;;;6.94;100.00
69060;BME280;56135;37.534;-122.308;2022-11-15T06:26:42;102020.41;;;6.91;100.00
69060;BME280;56135;37.534;-122.308;2022-11-15T06:29:10;102014.16;;;6.86;100.00
69060;BME280;56135;37.534;-122.308;2022-11-15T06:31:45;102019.31;;;6.83;100.00
69060;BME280;56135;37.534;-122.308;2022-11-15T06:34:10;102018.41;;;6.81;100.00
69060;BME280;56135;37.534;-122.308;2022-11-15T06:36:36;102020.06;;;6.77;100.00
69060;BME280;56135;37.534;-122.308;2022-11-15T06:39:03;102018.19;;;6.72;100.00
69060;BME280;56135;37.534;-122.308;2022-11-15T06:41:29;102022.59;;;6.71;100.00
69060;BME280;56135;37.534;-122.308;2022-11-15T06:43:54;102016.34;;;6.67;100.00
69060;BME280;56135;37.534;-122.308;2022-11-15T06:46:20;102015.41;;;6.65;100.00
69060;BME280;56135;37.534;-122.308;2022-11-15T06:48:46;102019.75;;;6.63;100.00
69060;BME280;56135;37.534;-122.308;2022-11-15T06:51:12;102019.72;;;6.62;100.00
69060;BME280;56135;37.534;-122.308;2022-11-15T06:53:37;102022.28;;;6.60;100.00
69060;BME280;56135;37.534;-122.308;2022-11-15T06:56:04;102019.59;;;6.57;100.00
69060;BME280;56135;37.534;-122.308;2022-11-15T06:58:30;102015.19;;;6.56;100.00
69060;BME280;56135;37.534;-122.308;2022-11-15T07:01:04;102023.06;;;6.56;100.00
69060;BME280;56135;37.534;-122.308;2022-11-15T07:03:30;102023.03;;;6.55;100.00
69060;BME280;56135;37.534;-122.308;2022-11-15T07:05:56;102027.41;;;6.54;100.00
69060;BME280;56135;37.534;-122.308;2022-11-15T07:08:23;102025.66;;;6.55;100.00
69060;BME280;56135;37.534;-122.308;2022-11-15T07:10:49;102026.50;;;6.54;100.00
69060;BME280;56135;37.534;-122.308;2022-11-15T07:13:15;102025.63;;;6.53;100.00
69060;BME280;56135;37.534;-122.308;2022-11-15T07:15:41;102023.84;;;6.52;100.00
69060;BME280;56135;37.534;-122.308;2022-11-15T07:18:06;102026.47;;;6.52;100.00
69060;BME280;56135;37.534;-122.308;2022-11-15T07:20:32;102031.75;;;6.54;100.00
69060;BME280;56135;37.534;-122.308;2022-11-15T07:23:01;102020.38;;;6.53;100.00
69060;BME280;56135;37.534;-122.308;2022-11-15T07:25:27;102015.13;;;6.53;100.00
69060;BME280;56135;37.534;-122.308;2022-11-15T07:27:54;102019.53;;;6.54;100.00
69060;BME280;56135;37.534;-122.308;2022-11-15T07:30:20;102016.88;;;6.53;100.00
69060;BME280;56135;37.534;-122.308;2022-11-15T07:32:46;102014.28;;;6.54;100.00
69060;BME280;56135;37.534;-122.308;2022-11-15T07:35:12;102014.28;;;6.54;100.00
69060;BME280;56135;37.534;-122.308;2022-11-15T07:37:37;102020.41;;;6.55;100.00
69060;BME280;56135;37.534;-122.308;2022-11-15T07:40:03;102019.56;;;6.56;100.00
69060;BME280;56135;37.534;-122.308;2022-11-15T07:42:31;102013.44;;;6.55;100.00
69060;BME280;56135;37.534;-122.308;2022-11-15T07:45:15;102025.69;;;6.56;100.00
69060;BME280;56135;37.534;-122.308;2022-11-15T07:47:41;102023.97;;;6.57;100.00
69060;BME280;56135;37.534;-122.308;2022-11-15T07:50:10;102028.34;;;6.58;100.00
69060;BME280;56135;37.534;-122.308;2022-11-15T07:52:36;102019.56;;;6.56;100.00
69060;BME280;56135;37.534;-122.308;2022-11-15T07:55:02;102021.31;;;6.55;100.00
69060;BME280;56135;37.534;-122.308;2022-11-15T07:57:28;102023.94;;;6.55;100.00
69060;BME280;56135;37.534;-122.308;2022-11-15T07:59:54;102025.63;;;6.53;100.00
69060;BME280;56135;37.534;-122.308;2022-11-15T08:02:20;102022.06;;;6.51;100.00
69060;BME280;56135;37.534;-122.308;2022-11-15T08:04:46;102019.41;;;6.49;100.00
69060;BME280;56135;37.534;-122.308;2022-11-15T08:07:12;102023.81;;;6.50;100.00
69060;BME280;56135;37.534;-122.308;2022-11-15T08:09:37;102025.56;;;6.50;100.00
69060;BME280;56135;37.534;-122.308;2022-11-15T08:12:03;102028.13;;;6.48;100.00
69060;BME280;56135;37.534;-122.308;2022-11-15T08:14:29;102027.25;;;6.48;100.00
69060;BME280;56135;37.534;-122.308;2022-11-15T08:16:55;102029.78;;;6.43;100.00
69060;BME280;56135;37.534;-122.308;2022-11-15T08:19:21;102023.56;;;6.40;100.00
69060;BME280;56135;37.534;-122.308;2022-11-15T08:21:46;102021.75;;;6.37;100.00
69060;BME280;56135;37.534;-122.308;2022-11-15T08:24:12;102023.41;;;6.33;100.00
69060;BME280;56135;37.534;-122.308;2022-11-15T08:26:38;102030.28;;;6.30;100.00
69060;BME280;56135;37.534;-122.308;2022-11-15T08:29:05;102023.19;;;6.26;100.00
69060;BME280;56135;37.534;-122.308;2022-11-15T08:31:30;102024.81;;;6.21;100.00
69060;BME280;56135;37.534;-122.308;2022-11-15T08:33:56;102026.50;;;6.17;100.00
69060;BME280;56135;37.534;-122.308;2022-11-15T08:36:22;102028.09;;;6.12;100.00
69060;BME280;56135;37.534;-122.308;2022-11-15T08:38:48;102027.97;;;6.07;100.00
69060;BME280;56135;37.534;-122.308;2022-11-15T08:41:16;102031.31;;;6.01;100.00
69060;BME280;56135;37.534;-122.308;2022-11-15T08:43:45;102029.41;;;5.96;100.00
69060;BME280;56135;37.534;-122.308;2022-11-15T08:46:12;102023.09;;;5.89;100.00
69060;BME280;56135;37.534;-122.308;2022-11-15T08:48:38;102025.63;;;5.86;100.00
69060;BME280;56135;37.534;-122.308;2022-11-15T08:51:04;102033.38;;;5.81;100.00
69060;BME280;56135;37.534;-122.308;2022-11-15T08:53:29;102035.78;;;5.74;100.00
69060;BME280;56135;37.534;-122.308;2022-11-15T08:55:55;102039.19;;;5.70;100.00
69060;BME280;56135;37.534;-122.308;2022-11-15T08:58:21;102034.69;;;5.65;100.00
69060;BME280;56135;37.534;-122.308;2022-11-15T09:00:47;102033.66;;;5.60;100.00
69060;BME280;56135;37.534;-122.308;2022-11-15T09:03:13;102028.34;;;5.57;100.00
69060;BME280;56135;37.534;-122.308;2022-11-15T09:05:38;102029.13;;;5.53;100.00
69060;BME280;56135;37.534;-122.308;2022-11-15T09:08:04;102034.16;;;5.47;100.00
69060;BME280;56135;37.534;-122.308;2022-11-15T09:10:30;102029.69;;;5.43;100.00
69060;BME280;56135;37.534;-122.308;2022-11-15T09:12:59;102033.94;;;5.39;100.00
69060;BME280;56135;37.534;-122.308;2022-11-15T09:15:24;102032.16;;;5.38;100.00
69060;BME280;56135;37.534;-122.308;2022-11-15T09:17:50;102039.06;;;5.34;100.00
69060;BME280;56135;37.534;-122.308;2022-11-15T09:20:16;102038.13;;;5.32;100.00
69060;BME280;56135;37.534;-122.308;2022-11-15T09:22:42;102044.19;;;5.31;100.00
69060;BME280;56135;37.534;-122.308;2022-11-15T09:25:08;102042.41;;;5.30;100.00
69060;BME280;56135;37.534;-122.308;2022-11-15T09:27:34;102044.97;;;5.29;100.00
69060;BME280;56135;37.534;-122.308;2022-11-15T09:30:00;102043.28;;;5.29;100.00
69060;BME280;56135;37.534;-122.308;2022-11-15T09:32:28;102051.09;;;5.28;100.00
69060;BME280;56135;37.534;-122.308;2022-11-15T09:34:53;102049.31;;;5.27;100.00
69060;BME280;56135;37.534;-122.308;2022-11-15T09:37:19;102043.16;;;5.26;100.00
69060;BME280;56135;37.534;-122.308;2022-11-15T09:39:45;102036.25;;;5.28;100.00
69060;BME280;56135;37.534;-122.308;2022-11-15T09:47:32;102031.94;;;5.30;100.00
69060;BME280;56135;37.534;-122.308;2022-11-15T09:50:07;102037.16;;;5.30;100.00
69060;BME280;56135;37.534;-122.308;2022-11-15T09:52:34;102032.84;;;5.31;100.00
69060;BME280;56135;37.534;-122.308;2022-11-15T09:55:02;102038.91;;;5.30;100.00
69060;BME280;56135;37.534;-122.308;2022-11-15T10:00:21;102032.78;;;5.29;100.00
69060;BME280;56135;37.534;-122.308;2022-11-15T10:03:04;102039.72;;;5.27;100.00
69060;BME280;56135;37.534;-122.308;2022-11-15T10:05:36;102036.06;;;5.22;100.00
69060;BME280;56135;37.534;-122.308;2022-11-15T10:10:41;102044.59;;;5.15;100.00
69060;BME280;56135;37.534;-122.308;2022-11-15T10:13:13;102055.81;;;5.11;100.00
69060;BME280;56135;37.534;-122.308;2022-11-15T10:15:41;102053.94;;;5.07;100.00
69060;BME280;56135;37.534;-122.308;2022-11-15T10:20:48;102051.91;;;4.98;100.00
69060;BME280;56135;37.534;-122.308;2022-11-15T10:23:15;102059.63;;;4.93;100.00
69060;BME280;56135;37.534;-122.308;2022-11-15T10:25:41;102054.25;;;4.89;100.00
69060;BME280;56135;37.534;-122.308;2022-11-15T10:28:21;102067.13;;;4.82;100.00
69060;BME280;56135;37.534;-122.308;2022-11-15T10:30:51;102064.38;;;4.78;100.00
69060;BME280;56135;37.534;-122.308;2022-11-15T10:35:43;102068.50;;;4.70;100.00
69060;BME280;56135;37.534;-122.308;2022-11-15T10:38:09;102071.00;;;4.66;100.00
69060;BME280;56135;37.534;-122.308;2022-11-15T10:40:36;102080.41;;;4.61;100.00
69060;BME280;56135;37.534;-122.308;2022-11-15T10:43:12;102073.34;;;4.59;100.00
69060;BME280;56135;37.534;-122.308;2022-11-15T10:45:39;102070.53;;;4.53;100.00
69060;BME280;56135;37.534;-122.308;2022-11-15T10:50:40;102080.00;;;4.49;100.00
69060;BME280;56135;37.534;-122.308;2022-11-15T10:55:52;102081.53;;;4.42;100.00
69060;BME280;56135;37.534;-122.308;2022-11-15T10:58:20;102078.75;;;4.38;100.00
69060;BME280;56135;37.534;-122.308;2022-11-15T11:00:47;102078.66;;;4.34;100.00
69060;BME280;56135;37.534;-122.308;2022-11-15T11:03:27;102077.59;;;4.29;100.00
69060;BME280;56135;37.534;-122.308;2022-11-15T11:06:14;102080.13;;;4.26;100.00
69060;BME280;56135;37.534;-122.308;2022-11-15T11:08:52;102079.16;;;4.24;100.00
69060;BME280;56135;37.534;-122.308;2022-11-15T11:11:18;102088.56;;;4.19;100.00
69060;BME280;56135;37.534;-122.308;2022-11-15T11:13:44;102088.38;;;4.13;100.00
69060;BME280;56135;37.534;-122.308;2022-11-15T11:21:59;102100.84;;;3.96;100.00
69060;BME280;56135;37.534;-122.308;2022-11-15T11:27:06;102098.69;;;3.84;100.00
69060;BME280;56135;37.534;-122.308;2022-11-15T11:30:17;102096.84;;;3.81;100.00
69060;BME280;56135;37.534;-122.308;2022-11-15T11:34:50;102104.53;;;3.77;100.00
69060;BME280;56135;37.534;-122.308;2022-11-15T11:37:27;102112.28;;;3.75;100.00
69060;BME280;56135;37.534;-122.308;2022-11-15T11:45:20;102115.50;;;3.68;100.00
69060;BME280;56135;37.534;-122.308;2022-11-15T11:48:12;102114.56;;;3.66;100.00
69060;BME280;56135;37.534;-122.308;2022-11-15T11:50:34;102116.19;;;3.62;100.00
69060;BME280;56135;37.534;-122.308;2022-11-15T11:53:16;102123.88;;;3.59;100.00
69060;BME280;56135;37.534;-122.308;2022-11-15T11:55:49;102122.22;;;3.61;100.00
69060;BME280;56135;37.534;-122.308;2022-11-15T11:58:34;102121.16;;;3.56;100.00
69060;BME280;56135;37.534;-122.308;2022-11-15T12:06:21;102123.69;;;3.53;100.00
69060;BME280;56135;37.534;-122.308;2022-11-15T12:11:19;102130.53;;;3.51;100.00
69060;BME280;56135;37.534;-122.308;2022-11-15T12:13:46;102136.59;;;3.50;100.00
69060;BME280;56135;37.534;-122.308;2022-11-15T12:16:15;102142.53;;;3.46;100.00
69060;BME280;56135;37.534;-122.308;2022-11-15T12:18:49;102145.94;;;3.43;100.00
69060;BME280;56135;37.534;-122.308;2022-11-15T12:24:03;102144.94;;;3.40;100.00
69060;BME280;56135;37.534;-122.308;2022-11-15T12:26:36;102146.53;;;3.36;100.00
69060;BME280;56135;37.534;-122.308;2022-11-15T12:29:04;102143.81;;;3.33;100.00
69060;BME280;56135;37.534;-122.308;2022-11-15T12:34:01;102140.22;;;3.31;100.00
69060;BME280;56135;37.534;-122.308;2022-11-15T12:36:33;102135.00;;;3.31;100.00
69060;BME280;56135;37.534;-122.308;2022-11-15T12:41:39;102145.41;;;3.29;100.00
69060;BME280;56135;37.534;-122.308;2022-11-15T12:44:10;102146.28;;;3.30;100.00
69060;BME280;56135;37.534;-122.308;2022-11-15T12:49:09;102145.44;;;3.31;100.00
69060;BME280;56135;37.534;-122.308;2022-11-15T12:54:28;102141.81;;;3.27;100.00
69060;BME280;56135;37.534;-122.308;2022-11-15T12:59:50;102145.19;;;3.25;100.00
69060;BME280;56135;37.534;-122.308;2022-11-15T13:04:46;102153.13;;;3.26;100.00
69060;BME280;56135;37.534;-122.308;2022-11-15T13:17:40;102156.09;;;3.36;100.00
69060;BME280;56135;37.534;-122.308;2022-11-15T13:23:17;102154.38;;;3.36;100.00
69060;BME280;56135;37.534;-122.308;2022-11-15T13:27:54;102156.91;;;3.34;100.00
69060;BME280;56135;37.534;-122.308;2022-11-15T13:30:24;102149.19;;;3.38;100.00
69060;BME280;56135;37.534;-122.308;2022-11-15T13:32:50;102151.81;;;3.38;100.00
69060;BME280;56135;37.534;-122.308;2022-11-15T13:35:27;102142.22;;;3.38;100.00
69060;BME280;56135;37.534;-122.308;2022-11-15T13:37:54;102143.97;;;3.38;100.00
69060;BME280;56135;37.534;-122.308;2022-11-15T13:42:46;102144.94;;;3.40;100.00
69060;BME280;56135;37.534;-122.308;2022-11-15T13:45:13;102158.88;;;3.40;100.00
69060;BME280;56135;37.534;-122.308;2022-11-15T13:47:40;102149.25;;;3.39;100.00
69060;BME280;56135;37.534;-122.308;2022-11-15T13:50:06;102151.09;;;3.42;100.00
69060;BME280;56135;37.534;-122.308;2022-11-15T13:52:33;102149.38;;;3.42;100.00
69060;BME280;56135;37.534;-122.308;2022-11-15T13:55:04;102156.25;;;3.40;100.00
69060;BME280;56135;37.534;-122.308;2022-11-15T13:57:48;102143.16;;;3.39;100.00
69060;BME280;56135;37.534;-122.308;2022-11-15T14:05:40;102150.03;;;3.37;100.00
69060;BME280;56135;37.534;-122.308;2022-11-15T14:08:20;102142.06;;;3.33;100.00
69060;BME280;56135;37.534;-122.308;2022-11-15T14:10:47;102150.63;;;3.29;100.00
69060;BME280;56135;37.534;-122.308;2022-11-15T14:13:34;102143.50;;;3.25;100.00
69060;BME280;56135;37.534;-122.308;2022-11-15T14:16:16;102152.22;;;3.26;100.00
69060;BME280;56135;37.534;-122.308;2022-11-15T14:21:10;102149.28;;;3.18;100.00
69060;BME280;56135;37.534;-122.308;2022-11-15T14:23:36;102159.63;;;3.15;100.00